MMMZ/MZT METAR and TAF weather

Enter ICAO airport designator
Station Type Date Time Source
MMMZ METAR 2021/05/11 16:41 UTC NOAA

MMMZ 111641Z 22004KT 15SM SCT100 BKN250 30/19 A2988 RMK 8/032


Station Type Date Time Source
MMMZ Decoded METAR 2021/05/11 16:41 UTC NOAA

Mazatlan / G. Buelna, Mexico (MMMZ) 23-10N 106-16W
May 11, 2021 - 12:41 PM EDT / 2021.05.11 1641 UTC
Wind: from the SW (220 degrees) at 5 MPH (4 KT):0
Visibility: 15 mile(s):0
Sky conditions: mostly cloudy
Temperature: 86 F (30 C)
Dew Point: 66 F (19 C)
Relative Humidity: 51%
Pressure (altimeter): 29.88 in. Hg (1011 hPa)
ob: MMMZ 111641Z 22004KT 15SM SCT100 BKN250 30/19 A2988 RMK 8/032
cycle: 16

Station Type Date Time Source
MMMZ TAF 2021/05/11 18:20 UTC NOAA

TAF MMMZ 111613Z 1118/1224 25010KT P6SM BKN100 BKN250 TX30/1121Z TN22/1212Z
FM120600 34005KT P6SM SCT100 SCT250
TEMPO 1211/1215 4SM HZ BKN015
FM121800 25010KT P6SM BKN100 BKN250

Example: see airport list